Time;durP1;ratioP1;P1;durP2;ratioP2;P2;SDS_P1;SDS_P2;PMS_P1;PMS_P2;Temp;Humidity;BMP_temperature;BMP_pressure;BME280_temperature;BME280_humidity;BME280_pressure;Samples;Min_cycle;Max_cycle;Signal;HPM_P1;HPM_P2
2024/02/12 00:01:06;;;;;;;8.98;2.20;;;;;;;14.45;60.15;98239.19;6143860;23;20005;-96
2024/02/12 00:03:37;;;;;;;9.13;2.03;;;;;;;14.37;59.88;98217.56;6142586;23;20001;-96
2024/02/12 00:06:03;;;;;;;9.35;2.70;;;;;;;14.42;59.37;98210.06;6144775;23;20347;-96
2024/02/12 00:08:32;;;;;;;10.55;2.22;;;;;;;14.51;59.51;98218.94;6146212;23;20012;-96
2024/02/12 00:11:06;;;;;;;11.85;2.40;;;;;;;14.55;59.32;98217.22;6144553;23;20001;-96
2024/02/12 00:13:37;;;;;;;14.27;2.42;;;;;;;14.32;59.66;98197.66;6144966;23;20033;-96
2024/02/12 00:16:09;;;;;;;9.80;2.00;;;;;;;14.31;60.09;98209.59;6168907;23;20003;-96
2024/02/12 00:18:39;;;;;;;11.68;2.42;;;;;;;14.21;59.56;98179.34;6145124;23;20408;-96
2024/02/12 00:21:08;;;;;;;7.80;2.17;;;;;;;14.35;59.17;98193.50;6144924;23;20005;-96
2024/02/12 00:23:37;;;;;;;12.57;2.13;;;;;;;14.43;59.47;98206.22;6145015;23;19985;-96
2024/02/12 00:26:05;;;;;;;11.88;2.30;;;;;;;14.34;59.18;98184.59;6143605;23;20005;-96
2024/02/12 00:28:54;;;;;;;6.75;2.20;;;;;;;14.33;59.34;98190.31;6144243;23;20028;-96
2024/02/12 00:31:52;;;;;;;9.60;2.20;;;;;;;14.35;59.19;98169.91;6207919;23;20012;-96
2024/02/12 00:34:39;;;;;;;17.27;2.83;;;;;;;14.37;58.84;98175.00;6158988;23;20077;-96
2024/02/12 00:37:46;;;;;;;10.10;2.42;;;;;;;14.29;59.09;98167.69;6185253;23;19997;-96
2024/02/12 00:40:18;;;;;;;13.13;2.80;;;;;;;14.27;59.08;98168.00;6119898;23;20017;-96
2024/02/12 00:43:08;;;;;;;10.82;2.47;;;;;;;14.38;59.27;98183.91;6065370;23;19987;-96
2024/02/12 00:46:11;;;;;;;8.65;2.15;;;;;;;14.30;58.50;98153.84;6042663;23;20011;-96
2024/02/12 00:56:27;;;;;;;12.32;2.78;;;;;;;14.45;58.58;98166.06;6235067;22;20435;-96
2024/02/12 00:59:25;;;;;;;9.85;2.50;;;;;;;14.48;58.45;98168.13;6233519;23;20025;-96
2024/02/12 01:04:39;;;;;;;11.52;2.53;;;;;;;14.38;58.26;98133.28;6207742;22;20244;-96
2024/02/12 01:07:12;;;;;;;9.68;2.38;;;;;;;14.58;58.25;98163.50;6157054;23;20021;-96
2024/02/12 01:09:47;;;;;;;13.48;2.40;;;;;;;14.47;58.02;98149.50;6128939;23;20005;-96
2024/02/12 01:12:17;;;;;;;9.45;2.00;;;;;;;14.60;57.81;98140.38;6173136;23;19997;-96
2024/02/12 01:14:48;;;;;;;9.93;2.20;;;;;;;14.60;57.47;98153.16;6176825;23;20060;-96
2024/02/12 01:17:16;;;;;;;14.30;2.53;;;;;;;14.52;57.89;98124.94;6129365;23;20001;-96
2024/02/12 01:22:51;;;;;;;9.52;2.20;;;;;;;14.62;57.76;98140.06;6164376;23;20063;-96
2024/02/12 01:25:20;;;;;;;12.30;2.17;;;;;;;14.41;58.03;98102.06;6085699;23;20000;-96
2024/02/12 01:28:06;;;;;;;5.75;1.80;;;;;;;14.48;58.14;98102.31;6147451;23;20005;-96
2024/02/12 01:42:38;;;;;;;;;;;;;;;14.39;58.81;98121.31;6180514;23;20036;-96
2024/02/12 01:45:33;;;;;;;13.43;2.28;;;;;;;14.37;59.05;98122.78;6120030;23;19909;-96
2024/02/12 01:48:02;;;;;;;7.97;1.98;;;;;;;14.28;58.81;98103.84;6080275;23;20013;-96
2024/02/12 01:50:34;;;;;;;14.70;2.55;;;;;;;14.30;58.97;98098.91;6104109;23;20013;-96
2024/02/12 01:53:05;;;;;;;10.52;2.25;;;;;;;14.39;58.66;98104.28;6104219;23;20006;-96
2024/02/12 01:55:31;;;;;;;9.60;2.47;;;;;;;14.38;58.40;98091.84;6101087;23;20006;-96
2024/02/12 01:58:06;;;;;;;12.32;2.38;;;;;;;14.52;58.15;98097.84;6102417;23;19998;-96
2024/02/12 02:00:35;;;;;;;13.15;2.13;;;;;;;14.54;57.91;98076.66;6102080;23;20029;-96
2024/02/12 02:03:01;;;;;;;12.90;2.00;;;;;;;14.44;58.29;98058.84;6104762;23;20070;-96
2024/02/12 02:05:32;;;;;;;5.47;1.65;;;;;;;14.51;58.53;98071.91;6103932;23;20002;-96
2024/02/12 02:08:00;;;;;;;8.23;1.88;;;;;;;14.39;58.58;98059.03;6079947;23;20006;-96
2024/02/12 02:10:28;;;;;;;10.57;1.92;;;;;;;14.50;58.59;98067.59;6102735;23;20009;-96
2024/02/12 02:12:56;;;;;;;6.55;2.15;;;;;;;14.46;58.64;98062.00;6103320;23;20036;-96
2024/02/12 02:15:25;;;;;;;9.40;1.83;;;;;;;14.62;58.60;98083.97;6121626;23;20005;-96
2024/02/12 02:17:52;;;;;;;12.63;2.22;;;;;;;14.55;58.70;98070.13;6115737;23;19997;-96
2024/02/12 02:20:18;;;;;;;14.30;2.35;;;;;;;14.53;58.86;98073.16;6113344;23;20001;-96
2024/02/12 02:22:45;;;;;;;13.52;2.45;;;;;;;14.60;59.16;98090.84;6114300;23;20001;-96
2024/02/12 02:25:16;;;;;;;9.18;1.70;;;;;;;14.45;58.92;98065.06;6115843;23;20006;-96
2024/02/12 02:27:45;;;;;;;6.28;1.92;;;;;;;14.57;59.33;98083.34;6116246;23;20035;-96
2024/02/12 02:30:12;;;;;;;9.07;2.72;;;;;;;14.56;59.31;98101.53;6115346;23;20067;-96
2024/02/12 02:32:47;;;;;;;12.00;1.77;;;;;;;14.58;59.21;98088.44;6116779;23;19997;-96
2024/02/12 02:35:17;;;;;;;13.48;2.00;;;;;;;14.48;59.35;98083.38;6141575;23;20029;-96
2024/02/12 02:37:46;;;;;;;17.20;1.95;;;;;;;14.48;59.16;98088.78;6114687;23;20036;-96
2024/02/12 02:40:23;;;;;;;7.75;2.30;;;;;;;14.53;58.88;98094.81;6124379;23;20394;-96
2024/02/12 02:42:58;;;;;;;10.07;2.17;;;;;;;14.40;58.39;98076.88;6222151;23;20012;-96
2024/02/12 02:45:30;;;;;;;10.30;1.95;;;;;;;14.59;57.99;98086.53;6196215;23;20450;-96
2024/02/12 02:47:56;;;;;;;4.22;1.13;;;;;;;14.46;57.65;98089.09;6172392;23;20005;-96
2024/02/12 02:50:30;;;;;;;7.65;1.55;;;;;;;14.54;57.70;98106.44;6171532;23;20060;-96
2024/02/12 02:52:56;;;;;;;6.70;1.65;;;;;;;14.49;57.44;98077.63;6170722;23;19997;-96
2024/02/12 02:55:48;;;;;;;8.10;1.60;;;;;;;14.42;57.55;98071.13;6195992;23;20013;-96
2024/02/12 03:07:38;;;;;;;7.93;1.70;;;;;;;14.68;57.67;98076.44;6256978;22;20020;-96
2024/02/12 03:10:07;;;;;;;6.55;1.33;;;;;;;14.50;58.41;98073.00;6183057;23;20047;-96
2024/02/12 03:12:46;;;;;;;6.57;1.50;;;;;;;14.63;57.83;98071.22;6184974;23;20069;-96
2024/02/12 03:15:14;;;;;;;4.45;1.15;;;;;;;14.57;58.14;98054.38;6213661;23;20011;-96
2024/02/12 03:17:48;;;;;;;5.03;1.40;;;;;;;14.60;58.47;98061.81;6186749;23;20004;-96
2024/02/12 03:20:19;;;;;;;4.70;1.30;;;;;;;14.69;58.34;98078.84;6187555;23;20008;-96
2024/02/12 03:22:53;;;;;;;6.10;1.67;;;;;;;14.71;58.50;98078.50;6188641;23;20004;-96
2024/02/12 03:25:28;;;;;;;10.55;1.95;;;;;;;14.64;58.47;98057.34;6212731;23;20031;-96
2024/02/12 03:28:00;;;;;;;7.68;1.58;;;;;;;14.53;58.73;98031.72;6188401;23;20415;-96
2024/02/12 03:30:43;;;;;;;;;;;;;;;;;;;;;
2024/02/12 03:33:38;;;;;;;6.15;1.90;;;;;;;14.49;58.69;98030.81;6162928;23;20027;-96
2024/02/12 03:36:08;;;;;;;11.27;2.15;;;;;;;14.48;58.72;98024.56;6236848;23;20032;-96
2024/02/12 03:38:42;;;;;;;6.25;1.88;;;;;;;14.41;58.92;98031.63;6186354;23;20000;-96
2024/02/12 03:41:38;;;;;;;15.15;1.85;;;;;;;14.33;58.78;98031.34;6188609;23;20056;-96
2024/02/12 03:44:13;;;;;;;11.13;2.00;;;;;;;14.37;58.74;98023.38;6187715;23;20001;-96
2024/02/12 03:47:00;;;;;;;20.48;2.42;;;;;;;14.37;58.82;98023.38;6188600;23;20081;-96
2024/02/12 04:02:58;;;;;;;10.52;1.55;;;;;;;14.25;59.57;97999.69;6147303;23;20002;-96
2024/02/12 04:05:27;;;;;;;11.55;1.65;;;;;;;14.26;59.34;98024.88;6121082;23;20009;-96
2024/02/12 04:07:59;;;;;;;12.32;1.80;;;;;;;14.30;59.24;98004.16;6098455;23;20006;-96
2024/02/12 04:10:36;;;;;;;10.57;1.95;;;;;;;14.32;59.17;98010.81;6097171;23;19999;-96
2024/02/12 04:13:14;;;;;;;8.10;1.98;;;;;;;14.36;58.77;98002.84;6098874;23;20006;-96
2024/02/12 04:15:41;;;;;;;11.27;1.63;;;;;;;14.35;58.90;98006.66;6073739;23;20065;-96
2024/02/12 04:18:16;;;;;;;20.95;2.85;;;;;;;14.32;58.66;98005.41;6096388;23;20012;-96
2024/02/12 04:20:43;;;;;;;11.80;2.05;;;;;;;14.42;58.63;98000.72;6069725;23;20005;-96
2024/02/12 04:23:14;;;;;;;12.30;2.10;;;;;;;14.30;58.80;97983.28;6092423;23;20029;-96
2024/02/12 04:25:41;;;;;;;10.02;1.90;;;;;;;14.50;58.31;98013.41;6091581;23;20136;-96
2024/02/12 04:28:18;;;;;;;14.55;2.22;;;;;;;14.51;58.30;97998.75;6115561;23;20006;-96
2024/02/12 04:30:49;;;;;;;9.73;1.83;;;;;;;14.28;58.30;97982.03;6072651;23;20002;-96
2024/02/12 04:33:16;;;;;;;;;;;;;;;14.41;58.23;98009.97;6155640;23;20029;-96
2024/02/12 04:35:41;;;;;;;9.57;1.77;;;;;;;14.32;58.18;98005.41;6174305;23;19951;-96
2024/02/12 04:38:07;;;;;;;15.48;1.83;;;;;;;14.45;58.10;98021.75;6171220;23;20441;-96
2024/02/12 04:40:33;;;;;;;18.35;2.47;;;;;;;14.44;57.96;98010.09;6170647;23;20004;-96
2024/02/12 04:46:03;;;;;;;8.10;1.83;;;;;;;14.40;58.10;97986.72;6192988;23;20356;-96
2024/02/12 04:48:33;;;;;;;14.52;1.75;;;;;;;14.38;58.18;97995.19;6168093;23;20009;-96
2024/02/12 04:50:59;;;;;;;9.60;1.70;;;;;;;14.42;58.02;97995.28;6140937;23;20089;-96
2024/02/12 04:53:26;;;;;;;6.72;2.22;;;;;;;14.59;57.74;97999.84;6141073;23;20412;-96
2024/02/12 04:55:52;;;;;;;18.15;2.00;;;;;;;14.38;57.88;97972.69;6166459;23;20348;-96
2024/02/12 04:58:20;;;;;;;12.30;1.85;;;;;;;14.46;57.83;97975.34;6140185;23;20001;-96
2024/02/12 05:00:45;;;;;;;15.27;1.80;;;;;;;14.55;58.16;97988.88;6164827;23;20078;-96
2024/02/12 05:03:12;;;;;;;14.98;1.83;;;;;;;14.54;58.89;97998.09;6139127;23;20001;-96
2024/02/12 05:05:42;;;;;;;14.00;1.83;;;;;;;14.51;58.39;97982.50;6165402;23;20024;-96
2024/02/12 05:08:11;;;;;;;17.60;7.13;;;;;;;14.63;58.04;97996.16;6191078;23;20007;-96
2024/02/12 05:10:37;;;;;;;7.63;2.05;;;;;;;14.67;58.39;98017.97;6165663;23;20009;-96
2024/02/12 05:13:06;;;;;;;13.45;2.05;;;;;;;14.57;58.01;97997.47;6139239;23;20004;-96
2024/02/12 05:24:31;;;;;;;6.70;1.45;;;;;;;14.77;56.92;98019.50;6178584;23;20024;-96
2024/02/12 05:33:43;;;;;;;6.13;1.48;;;;;;;14.72;57.10;98002.31;6113934;23;20017;-96
2024/02/12 05:36:17;;;;;;;7.40;1.77;;;;;;;14.71;57.39;98003.44;6083123;23;20005;-96
2024/02/12 05:38:49;;;;;;;8.75;2.45;;;;;;;14.80;57.33;98025.06;6178850;23;19997;-96
2024/02/12 05:44:03;;;;;;;9.20;2.53;;;;;;;14.75;57.59;98023.34;6217330;22;20030;-96
2024/02/12 05:47:12;;;;;;;11.30;2.40;;;;;;;14.68;57.45;98014.13;6235239;23;20009;-96
2024/02/12 06:25:49;;;;;;;;;;;;;;;14.55;59.51;98005.94;6241888;22;20033;-96
2024/02/12 06:29:07;;;;;;;;;;;;;;;;;;;;;
2024/02/12 06:32:25;;;;;;;27.08;6.18;;;;;;;14.85;58.76;97997.75;6172442;23;20030;-96
2024/02/12 06:35:18;;;;;;;15.85;2.97;;;;;;;14.90;58.89;97994.03;6205212;22;20040;-96
2024/02/12 06:40:52;;;;;;;16.42;3.45;;;;;;;14.95;59.12;97986.50;6218575;22;20032;-96
2024/02/12 06:43:18;;;;;;;20.15;3.30;;;;;;;15.08;59.41;97975.72;6175631;23;20031;-96
2024/02/12 06:49:03;;;;;;;40.63;16.35;;;;;;;15.28;59.30;97966.78;6209104;22;20044;-96
2024/02/12 06:51:42;;;;;;;17.08;3.78;;;;;;;15.46;59.08;97993.72;6144431;23;20085;-96
2024/02/12 06:54:18;;;;;;;22.20;4.22;;;;;;;15.43;59.02;97978.13;6142589;23;20428;-96
2024/02/12 06:56:54;;;;;;;21.55;4.03;;;;;;;15.50;58.75;97983.78;6141749;23;20024;-96
2024/02/12 06:59:22;;;;;;;21.95;7.55;;;;;;;15.64;58.91;97999.75;6137144;23;19997;-93
2024/02/12 07:01:48;;;;;;;22.08;6.80;;;;;;;15.70;58.61;97993.00;6139506;23;20012;-95
2024/02/12 07:04:14;;;;;;;25.67;9.43;;;;;;;15.75;58.50;97995.53;6143999;23;19997;-95
2024/02/12 07:06:42;;;;;;;20.63;4.15;;;;;;;15.79;58.32;97993.72;6136917;23;20392;-94
2024/02/12 07:09:08;;;;;;;19.17;4.68;;;;;;;15.90;58.11;98003.00;6138313;23;20029;-92
2024/02/12 07:11:34;;;;;;;21.55;5.88;;;;;;;15.76;58.01;97972.69;6136828;23;20001;-94
2024/02/12 07:13:59;;;;;;;23.17;6.68;;;;;;;15.83;57.79;97996.53;6135414;23;20001;-94
2024/02/12 07:16:56;;;;;;;15.38;2.72;;;;;;;15.71;58.11;97986.44;6139595;23;19997;-96
2024/02/12 07:19:22;;;;;;;14.63;3.95;;;;;;;15.82;57.65;97974.06;6169162;23;20005;-94
2024/02/12 07:21:48;;;;;;;14.95;3.63;;;;;;;15.77;57.67;97968.81;6137007;23;19997;-95
2024/02/12 07:24:36;;;;;;;13.88;3.20;;;;;;;15.73;57.82;97957.88;6168918;23;20016;-96
2024/02/12 07:27:02;;;;;;;13.07;4.95;;;;;;;15.89;57.19;97968.06;6168822;23;20017;-96
2024/02/12 07:38:03;;;;;;;14.65;4.97;;;;;;;16.07;56.86;97972.16;6195581;22;20320;-96
2024/02/12 07:59:23;;;;;;;14.85;5.47;;;;;;;15.91;60.87;97961.16;5475443;23;16407862;-95
2024/02/12 08:04:37;;;;;;;43.67;26.08;;;;;;;15.52;61.32;97895.53;6230557;22;20015;-96
2024/02/12 08:07:19;;;;;;;17.48;8.10;;;;;;;15.65;62.29;97911.81;6200272;23;20013;-96
2024/02/12 08:10:04;;;;;;;;;;;;;;;;;;;;;
2024/02/12 08:12:37;;;;;;;21.75;10.75;;;;;;;16.17;62.61;97905.72;6110574;23;19917;-96
2024/02/12 08:15:39;;;;;;;;;;;;;;;;;;;;;
2024/02/12 08:18:19;;;;;;;10.95;2.20;;;;;;;16.28;59.69;97900.63;6063655;23;20036;-96
2024/02/12 08:20:47;;;;;;;23.70;12.77;;;;;;;16.40;59.76;97888.94;6076255;23;20101;-94
2024/02/12 08:23:18;;;;;;;9.05;2.38;;;;;;;16.60;58.65;97906.19;6050286;23;20006;-96
2024/02/12 08:26:15;;;;;;;7.47;2.20;;;;;;;16.55;58.66;97902.59;6026664;23;20009;-96
2024/02/12 08:28:43;;;;;;;6.85;2.00;;;;;;;16.76;58.49;97912.50;6038444;23;20010;-96
2024/02/12 08:31:11;;;;;;;9.70;2.78;;;;;;;16.80;58.34;97909.88;6027763;23;20014;-96
2024/02/12 08:33:39;;;;;;;4.15;2.58;;;;;;;16.80;57.80;97902.50;6085715;23;20374;-96
2024/02/12 08:36:06;;;;;;;7.85;2.60;;;;;;;16.81;57.12;97890.53;6033056;23;20006;-96
2024/02/12 08:38:34;;;;;;;10.98;2.75;;;;;;;16.77;57.67;97893.13;6030599;23;20039;-96
2024/02/12 08:41:03;;;;;;;6.07;2.22;;;;;;;16.73;57.59;97903.09;6095015;23;20005;-96
2024/02/12 08:43:33;;;;;;;11.57;3.20;;;;;;;16.55;59.26;97880.06;6135455;23;20021;-96
2024/02/12 08:53:59;;;;;;;4.55;1.60;;;;;;;16.52;56.11;97895.13;6196662;22;20021;-95
2024/02/12 08:56:42;;;;;;;7.13;2.20;;;;;;;16.50;56.53;97918.34;6142089;23;20447;-96
2024/02/12 09:02:18;;;;;;;8.10;3.00;;;;;;;15.89;56.33;97921.91;6201247;22;20032;-96
2024/02/12 09:07:21;;;;;;;7.57;1.45;;;;;;;15.93;55.79;97930.97;6193083;23;20329;-96
2024/02/12 09:10:45;;;;;;;9.55;1.80;;;;;;;15.80;56.26;97922.03;6130516;23;20024;-96
2024/02/12 09:13:11;;;;;;;3.88;2.00;;;;;;;15.92;56.19;97929.41;5943469;24;20027;-95
2024/02/12 09:15:39;;;;;;;4.68;1.38;;;;;;;15.88;57.33;97934.69;5889303;24;20009;-94
2024/02/12 09:18:35;;;;;;;5.80;1.52;;;;;;;15.33;59.26;97939.44;5900464;24;20008;-96
2024/02/12 09:21:08;;;;;;;4.45;1.40;;;;;;;15.53;59.20;97937.78;5863693;24;20496;-96
2024/02/12 09:23:39;;;;;;;7.13;1.25;;;;;;;15.72;58.69;97929.13;5936408;23;20009;-96
2024/02/12 09:32:30;;;;;;;5.55;1.10;;;;;;;15.79;59.01;97936.72;6226198;22;20027;-96
2024/02/12 09:35:01;;;;;;;2.85;1.38;;;;;;;15.82;58.48;97935.28;6196879;23;20115;-96
2024/02/12 09:37:40;;;;;;;5.80;1.50;;;;;;;15.62;55.33;97915.97;6171450;23;20011;-96
2024/02/12 09:45:53;;;;;;;6.00;1.77;;;;;;;15.65;52.19;97912.59;6201451;22;20029;-96
2024/02/12 09:48:20;;;;;;;3.42;2.05;;;;;;;15.85;50.74;97932.66;6165408;23;20013;-95
2024/02/12 09:50:53;;;;;;;4.40;1.55;;;;;;;15.75;49.59;97924.97;6139206;23;20001;-96
2024/02/12 09:53:23;;;;;;;3.83;2.08;;;;;;;15.84;49.81;97936.50;6142579;23;20106;-94
2024/02/12 09:55:48;;;;;;;3.22;0.85;;;;;;;15.99;49.32;97935.03;6139574;23;20005;-94
2024/02/12 09:58:20;;;;;;;3.72;0.98;;;;;;;15.96;49.22;97931.09;6138934;23;20341;-94
2024/02/12 10:00:46;;;;;;;;;;;;;;;15.96;47.44;97939.22;6144642;23;19997;-94
2024/02/12 10:20:43;;;;;;;1.92;0.77;;;;;;;15.84;46.44;97965.56;6190876;22;20028;-95
2024/02/12 10:26:09;;;;;;;3.70;1.70;;;;;;;15.87;45.62;97930.38;6223402;22;19919;-96
2024/02/12 10:28:58;;;;;;;;;;;;;;;;;;;;;
2024/02/12 10:35:10;;;;;;;;;;;;;;;;;;;;;
2024/02/12 11:10:24;;;;;;;;;;;;;;;16.09;49.27;97931.09;6217790;22;20019;-95
2024/02/12 11:30:23;;;;;;;3.70;1.17;;;;;;;17.24;43.37;97929.75;6204772;23;20008;-96
2024/02/12 11:37:02;;;;;;;;;;;;;;;;;;;;;
2024/02/12 11:40:35;;;;;;;;;;;;;;;;;;;;;
2024/02/12 11:46:09;;;;;;;60.22;29.73;;;;;;;17.24;41.54;97934.41;6216465;22;20096;-96
2024/02/12 11:48:38;;;;;;;18.42;6.30;;;;;;;17.07;41.97;97917.25;6204201;23;20074;-96
2024/02/12 11:51:03;;;;;;;16.95;1.60;;;;;;;17.07;41.88;97914.53;6167790;23;20001;-92
2024/02/12 11:53:32;;;;;;;14.95;1.73;;;;;;;17.00;41.72;97930.69;6200122;23;20003;-95
2024/02/12 11:56:06;;;;;;;1.98;0.77;;;;;;;16.99;40.93;97911.97;6182121;23;20371;-96
2024/02/12 11:58:37;;;;;;;13.18;1.17;;;;;;;17.08;41.33;97924.31;6205240;23;20035;-95
2024/02/12 12:01:28;;;;;;;4.68;1.63;;;;;;;16.91;41.68;97906.38;6200799;23;20005;-93
2024/02/12 12:04:04;;;;;;;1.77;0.60;;;;;;;16.98;40.78;97913.91;6167376;23;20075;-93
2024/02/12 12:06:34;;;;;;;1.35;0.70;;;;;;;17.10;40.26;97924.75;6167228;23;20055;-95
2024/02/12 12:09:00;;;;;;;3.97;1.02;;;;;;;17.05;40.89;97910.59;6167332;23;20320;-93
2024/02/12 12:11:28;;;;;;;3.83;0.68;;;;;;;17.10;40.53;97921.22;6168164;23;20000;-94
2024/02/12 12:14:01;;;;;;;4.65;0.63;;;;;;;17.23;40.84;97925.47;6169565;23;20007;-94
2024/02/12 12:16:28;;;;;;;6.13;1.02;;;;;;;17.20;41.42;97917.22;6168028;23;20001;-94
2024/02/12 12:18:54;;;;;;;2.80;0.70;;;;;;;17.28;40.76;97927.91;6168127;23;20059;-93
2024/02/12 12:21:20;;;;;;;7.00;1.42;;;;;;;17.36;41.31;97929.69;6169205;23;20000;-92
2024/02/12 12:23:49;;;;;;;7.43;1.73;;;;;;;17.37;41.22;97922.34;6169044;23;20005;-94
2024/02/12 12:26:19;;;;;;;7.95;2.33;;;;;;;17.53;40.03;97935.94;6170803;23;20001;-94
2024/02/12 12:28:48;;;;;;;5.65;1.30;;;;;;;17.53;39.96;97927.78;6168696;23;20008;-95
2024/02/12 12:31:13;;;;;;;11.30;1.50;;;;;;;17.66;39.96;97933.94;6175512;23;20001;-95
2024/02/12 12:33:39;;;;;;;8.32;1.15;;;;;;;17.74;39.17;97930.25;6169773;23;20007;-93
2024/02/12 12:36:08;;;;;;;11.43;1.83;;;;;;;17.79;38.83;97932.72;6167441;23;20079;-94
2024/02/12 12:38:35;;;;;;;6.35;1.42;;;;;;;17.71;38.21;97917.34;6167532;23;20139;-93
2024/02/12 12:44:51;;;;;;;;;;;;;;;;;;;;;
2024/02/12 12:48:15;;;;;;;;;;;;;;;;;;;;;
2024/02/12 12:50:41;;;;;;;15.57;2.55;;;;;;;17.56;37.66;97932.53;6221664;23;20024;-94
2024/02/12 12:53:37;;;;;;;20.00;4.95;;;;;;;17.41;37.86;97931.41;6169194;23;20343;-93
2024/02/12 13:00:18;;;;;;;14.88;2.55;;;;;;;17.28;39.23;97932.59;6170993;23;20016;-96
2024/02/12 13:02:49;;;;;;;11.43;1.73;;;;;;;17.27;38.67;97950.06;6164938;23;19994;-96
2024/02/12 13:08:14;;;;;;;13.73;1.90;;;;;;;17.05;41.53;97954.91;6118677;23;20005;-96
2024/02/12 13:10:56;;;;;;;;;;;;;;;;;;;;;
2024/02/12 13:22:10;;;;;;;22.67;2.75;;;;;;;16.38;43.11;97978.94;6230657;23;20099;-96
2024/02/12 13:31:24;;;;;;;8.48;1.45;;;;;;;16.12;45.12;97985.50;6159124;23;20368;-94
2024/02/12 13:33:59;;;;;;;10.57;1.85;;;;;;;16.18;45.14;97983.34;6158277;23;20013;-95
2024/02/12 13:36:29;;;;;;;9.35;1.40;;;;;;;16.13;45.92;97981.66;6181478;23;20407;-92
2024/02/12 13:39:19;;;;;;;9.05;2.20;;;;;;;16.16;46.65;97981.00;6157649;23;20080;-94
2024/02/12 13:41:48;;;;;;;8.80;2.10;;;;;;;16.10;46.50;97974.19;6108218;23;20356;-94
2024/02/12 13:44:24;;;;;;;15.55;3.97;;;;;;;16.17;46.66;97988.00;6108937;23;20012;-95
2024/02/12 13:46:52;;;;;;;9.02;2.17;;;;;;;16.19;46.24;97984.94;6084203;23;20012;-95
2024/02/12 13:49:20;;;;;;;8.52;2.17;;;;;;;16.25;46.55;97974.63;6107493;23;20005;-94
2024/02/12 13:51:55;;;;;;;9.57;1.90;;;;;;;16.35;46.37;97982.31;6132787;23;20133;-94
2024/02/12 13:58:51;;;;;;;9.85;2.22;;;;;;;16.47;46.65;97963.28;6022945;23;20036;-96
2024/02/12 14:01:17;;;;;;;10.85;2.20;;;;;;;16.54;47.40;97987.97;5855093;24;20010;-93
2024/02/12 14:03:44;;;;;;;13.60;1.80;;;;;;;16.46;46.38;97985.38;5865648;24;20073;-93
2024/02/12 14:06:16;;;;;;;13.47;1.77;;;;;;;16.48;45.89;98002.91;5933407;24;20038;-93
2024/02/12 14:08:42;;;;;;;11.48;2.72;;;;;;;16.55;46.06;98022.16;6031769;23;20014;-93
2024/02/12 14:11:12;;;;;;;16.08;2.40;;;;;;;16.47;46.65;98020.34;6074010;23;20066;-93
2024/02/12 14:13:41;;;;;;;12.02;2.30;;;;;;;16.41;48.02;98021.69;6098638;23;20002;-95
2024/02/12 14:16:08;;;;;;;10.88;2.15;;;;;;;16.37;47.52;98018.09;6073754;23;20016;-94
2024/02/12 14:18:44;;;;;;;12.93;2.55;;;;;;;16.36;48.71;98030.88;6071395;23;19983;-94
2024/02/12 14:21:14;;;;;;;8.25;1.65;;;;;;;16.30;48.31;98039.59;6073737;23;20003;-95
2024/02/12 14:24:05;;;;;;;;;;;;;;;;;;;;;
2024/02/12 14:26:35;;;;;;;13.63;1.95;;;;;;;16.07;47.60;98029.16;6085883;23;20034;-96
2024/02/12 14:33:47;;;;;;;6.15;2.08;;;;;;;15.81;50.38;98053.09;5966802;24;20048;-96
2024/02/12 14:36:32;;;;;;;;;;;;;;;15.73;50.63;98054.78;5934228;24;20352;-94
2024/02/12 14:50:32;;;;;;;16.73;2.10;;;;;;;15.52;54.62;98058.31;6224234;22;20028;-96
2024/02/12 14:53:04;;;;;;;14.68;3.97;;;;;;;15.54;54.21;98050.63;6176588;23;20021;-96
2024/02/12 14:56:01;;;;;;;15.25;3.35;;;;;;;15.39;54.71;98036.88;6205704;23;20000;-96
2024/02/12 14:58:27;;;;;;;22.38;3.58;;;;;;;15.40;54.29;98041.97;6229059;23;20023;-96
2024/02/12 15:00:58;;;;;;;10.68;2.88;;;;;;;15.26;55.41;98044.16;6176252;23;20039;-96
2024/02/12 15:03:47;;;;;;;13.43;3.63;;;;;;;15.17;56.01;98060.50;6172757;23;20011;-96
2024/02/12 15:06:51;;;;;;;;;;;;;;;;;;;;;
2024/02/12 15:13:12;;;;;;;18.48;5.93;;;;;;;15.19;55.78;98060.16;6019198;23;20019;-96
2024/02/12 15:15:46;;;;;;;11.63;3.42;;;;;;;15.00;58.22;98066.84;5975344;23;20035;-96
2024/02/12 15:18:34;;;;;;;15.10;3.05;;;;;;;14.90;58.41;98070.75;5973042;23;20336;-96
2024/02/12 15:21:04;;;;;;;10.57;2.72;;;;;;;14.72;59.43;98071.97;5982989;23;20007;-96
2024/02/12 15:23:32;;;;;;;13.13;4.38;;;;;;;14.73;59.74;98101.44;5981750;23;20008;-96
2024/02/12 15:26:00;;;;;;;14.52;4.93;;;;;;;14.68;60.72;98095.41;5995713;23;20004;-94
2024/02/12 15:28:37;;;;;;;15.50;3.78;;;;;;;14.67;60.01;98093.81;5991932;23;20098;-95
2024/02/12 15:31:11;;;;;;;14.40;3.60;;;;;;;14.62;60.13;98094.81;6086269;23;19985;-96
2024/02/12 15:33:44;;;;;;;11.85;4.72;;;;;;;14.52;59.95;98084.31;6096164;23;20005;-95
2024/02/12 15:48:22;;;;;;;23.73;7.93;;;;;;;14.53;60.38;98126.53;6223121;22;20082;-96
2024/02/12 15:50:57;;;;;;;;;;;;;;;;;;;;;
2024/02/12 15:53:40;;;;;;;10.95;4.35;;;;;;;14.63;58.53;98145.16;6199386;23;20004;-96
2024/02/12 15:56:28;;;;;;;;;;;;;;;;;;;;;
2024/02/12 15:59:03;;;;;;;13.90;2.85;;;;;;;14.60;58.71;98143.09;6204814;23;20016;-96
2024/02/12 16:02:08;;;;;;;8.93;2.63;;;;;;;14.51;59.07;98166.69;6182893;23;20004;-96
2024/02/12 16:07:31;;;;;;;22.92;11.93;;;;;;;14.26;59.52;98169.16;6218756;22;20024;-94
2024/02/12 16:10:05;;;;;;;13.15;7.30;;;;;;;14.26;59.98;98168.38;6173644;23;20051;-95
2024/02/12 16:19:30;;;;;;;11.05;3.45;;;;;;;13.90;60.68;98164.09;6141337;23;20218;-96
2024/02/12 16:22:04;;;;;;;13.65;4.45;;;;;;;13.82;60.33;98173.84;6083296;23;20349;-96
2024/02/12 16:24:42;;;;;;;;;;;;;;;;;;;;;
2024/02/12 16:27:08;;;;;;;11.43;2.95;;;;;;;13.70;60.35;98184.50;6151545;23;20406;-95
2024/02/12 16:29:36;;;;;;;9.00;3.25;;;;;;;13.53;60.12;98196.91;6173898;23;20015;-96
2024/02/12 16:34:59;;;;;;;11.20;5.78;;;;;;;13.46;59.84;98203.88;6169529;23;20016;-92
2024/02/12 16:37:27;;;;;;;14.05;3.72;;;;;;;13.39;60.04;98193.53;6169629;23;19993;-95
2024/02/12 16:39:55;;;;;;;12.85;4.53;;;;;;;13.44;59.69;98192.59;6170788;23;20012;-96
2024/02/12 16:42:20;;;;;;;11.13;3.95;;;;;;;13.57;59.66;98201.66;6168597;23;19996;-94
2024/02/12 16:44:46;;;;;;;12.48;3.95;;;;;;;13.58;60.50;98208.69;6167714;23;20004;-96
2024/02/12 16:47:12;;;;;;;12.10;3.50;;;;;;;13.54;58.98;98194.97;6167786;23;20066;-95
2024/02/12 16:49:37;;;;;;;10.93;3.50;;;;;;;13.61;58.71;98203.41;6194618;23;20028;-95
2024/02/12 16:52:12;;;;;;;11.90;3.80;;;;;;;13.65;58.20;98193.53;6196500;23;20000;-96
2024/02/12 16:54:40;;;;;;;12.38;5.20;;;;;;;13.65;58.22;98196.25;6178981;23;19996;-96
2024/02/12 16:57:07;;;;;;;12.57;3.90;;;;;;;13.61;58.20;98189.09;6197362;23;19996;-95
2024/02/12 16:59:33;;;;;;;20.27;8.73;;;;;;;13.56;57.84;98210.91;6172542;23;20008;-96
2024/02/12 17:01:59;;;;;;;19.15;5.32;;;;;;;13.57;58.12;98198.94;6169769;23;20077;-95
2024/02/12 17:04:28;;;;;;;10.93;4.15;;;;;;;13.57;57.75;98194.34;6171977;23;20501;-96
2024/02/12 17:06:54;;;;;;;10.35;4.22;;;;;;;13.60;58.09;98190.22;6172373;23;20016;-95
2024/02/12 17:09:27;;;;;;;26.55;6.68;;;;;;;13.56;58.52;98178.44;6199754;23;20028;-95
2024/02/12 17:11:55;;;;;;;19.98;6.30;;;;;;;13.65;58.39;98206.28;6182827;23;20020;-96
2024/02/12 17:14:59;;;;;;;26.33;9.55;;;;;;;13.43;58.56;98191.78;6201531;23;20000;-96
2024/02/12 17:17:55;;;;;;;17.98;5.20;;;;;;;13.53;58.94;98188.78;6205228;23;19997;-96
2024/02/12 17:20:50;;;;;;;16.63;8.48;;;;;;;13.50;58.19;98186.69;6196843;22;20024;-96
2024/02/12 17:23:18;;;;;;;13.57;4.45;;;;;;;13.61;57.88;98195.28;6173047;23;20048;-95
2024/02/12 17:25:43;;;;;;;10.88;4.75;;;;;;;13.64;58.05;98196.59;6168267;23;20001;-96
2024/02/12 17:28:12;;;;;;;12.32;3.95;;;;;;;13.54;58.10;98184.94;6168288;23;20428;-96
2024/02/12 17:30:37;;;;;;;15.32;5.35;;;;;;;13.43;57.84;98172.88;6166916;23;20444;-96
2024/02/12 17:33:06;;;;;;;53.10;24.00;;;;;;;13.45;58.37;98176.06;6168047;23;20003;-96
2024/02/12 17:35:32;;;;;;;33.72;14.40;;;;;;;13.41;58.58;98168.91;6196041;23;20001;-96
2024/02/12 17:38:05;;;;;;;17.27;5.38;;;;;;;13.33;58.82;98184.78;6168371;23;20446;-96
2024/02/12 17:40:30;;;;;;;7.95;4.72;;;;;;;13.31;58.62;98188.91;6167418;23;20080;-96
2024/02/12 17:42:56;;;;;;;13.38;5.00;;;;;;;13.31;59.24;98194.31;6193334;23;20001;-95
2024/02/12 17:45:22;;;;;;;14.27;4.93;;;;;;;13.27;59.33;98190.63;6167730;23;20059;-95